createdAt,value
2017-12-23T00:03:17.079Z,92.10
2017-12-23T00:08:18.612Z,91.70
2017-12-23T00:13:20.132Z,92.10
2017-12-23T00:18:21.665Z,92.30
2017-12-23T00:23:23.225Z,92.30
2017-12-23T00:28:24.789Z,91.70
2017-12-23T00:33:27.114Z,91.90
2017-12-23T00:38:28.652Z,91.80
2017-12-23T00:43:30.304Z,91.60
2017-12-23T00:48:31.819Z,91.60
2017-12-23T00:53:33.368Z,91.70
2017-12-23T00:58:34.923Z,91.80
2017-12-23T01:03:37.237Z,91.40
2017-12-23T01:08:38.821Z,91.40
2017-12-23T01:13:40.313Z,91.50
2017-12-23T01:18:41.828Z,91.20
2017-12-23T01:23:44.091Z,90.60
2017-12-23T01:28:45.624Z,90.60
2017-12-23T01:33:47.167Z,90.80
2017-12-23T01:38:48.676Z,90.80
2017-12-23T01:43:50.218Z,90.90
2017-12-23T01:48:51.797Z,90.00
2017-12-23T01:53:53.337Z,90.20
2017-12-23T01:58:54.896Z,90.90
2017-12-23T02:03:57.212Z,91.50
2017-12-23T02:08:58.753Z,91.40
2017-12-23T02:14:00.277Z,91.40
2017-12-23T02:19:01.726Z,91.20
2017-12-23T02:24:03.260Z,91.30
2017-12-23T02:29:04.836Z,91.60
2017-12-23T02:34:06.382Z,91.50
2017-12-23T02:39:08.658Z,91.70
2017-12-23T02:44:10.169Z,91.70
2017-12-23T02:49:11.686Z,92.30
2017-12-23T02:54:13.966Z,91.80
2017-12-23T02:59:15.483Z,91.80
2017-12-23T03:04:17.007Z,91.50
2017-12-23T03:09:18.510Z,91.30
2017-12-23T03:14:20.059Z,91.30
2017-12-23T03:19:22.314Z,90.30
2017-12-23T03:24:23.834Z,90.30
2017-12-23T03:29:25.361Z,90.30
2017-12-23T03:34:26.916Z,91.00
2017-12-23T03:39:28.424Z,90.00
2017-12-23T03:44:29.943Z,89.40
2017-12-23T03:49:31.460Z,89.20
2017-12-23T03:54:32.966Z,89.50
2017-12-23T03:59:34.444Z,89.70
2017-12-23T04:04:35.964Z,89.00
2017-12-23T04:09:37.496Z,89.40
2017-12-23T04:14:39.800Z,90.20
2017-12-23T04:19:41.339Z,90.10
2017-12-23T04:24:43.616Z,90.60
2017-12-23T04:29:45.150Z,90.20
2017-12-23T04:34:46.634Z,90.10
2017-12-23T04:39:48.157Z,90.30
2017-12-23T04:44:49.811Z,90.40
2017-12-23T04:49:51.265Z,89.80
2017-12-23T04:54:53.524Z,89.00
2017-12-23T04:59:55.817Z,89.50
2017-12-23T05:04:57.309Z,88.60
2017-12-23T05:09:59.062Z,88.70
2017-12-23T05:15:01.308Z,88.90
2017-12-23T05:20:02.799Z,88.90
2017-12-23T05:25:04.306Z,89.30
2017-12-23T05:30:05.781Z,88.60
2017-12-23T05:35:07.320Z,88.20
2017-12-23T05:40:09.559Z,88.40
2017-12-23T05:45:11.052Z,88.30
2017-12-23T05:50:12.558Z,88.50
2017-12-23T05:55:14.037Z,88.40
2017-12-23T06:00:15.776Z,88.80
2017-12-23T06:05:18.132Z,89.10
2017-12-23T06:10:19.622Z,89.00
2017-12-23T06:15:22.154Z,88.70
2017-12-23T06:20:23.645Z,88.70
2017-12-23T06:25:25.149Z,89.00
2017-12-23T06:30:27.359Z,88.90
2017-12-23T06:35:28.889Z,88.90
2017-12-23T06:40:31.181Z,89.30
2017-12-23T06:45:33.437Z,88.80
2017-12-23T06:50:41.899Z,88.80
2017-12-23T06:55:44.131Z,89.00
2017-12-23T07:00:45.668Z,89.00
2017-12-23T07:05:47.172Z,89.10
2017-12-23T07:10:48.694Z,89.20
2017-12-23T07:15:50.224Z,88.90
2017-12-23T07:20:51.734Z,88.80
2017-12-23T07:25:53.244Z,88.90
2017-12-23T07:30:54.762Z,90.10
2017-12-23T07:35:56.249Z,89.40
2017-12-23T07:40:57.754Z,89.20
2017-12-23T07:45:59.279Z,89.20
2017-12-23T07:51:00.789Z,89.20
2017-12-23T07:56:02.295Z,89.40
2017-12-23T08:01:03.733Z,89.00
2017-12-23T08:06:05.261Z,88.50
2017-12-23T08:11:07.586Z,88.90
2017-12-23T08:16:09.093Z,87.40
2017-12-23T08:21:10.624Z,86.30
2017-12-23T08:26:12.145Z,85.80
2017-12-23T08:31:13.720Z,85.20
2017-12-23T08:36:15.190Z,86.00
2017-12-23T08:41:16.754Z,86.60
2017-12-23T08:46:18.232Z,87.00
2017-12-23T08:51:19.702Z,86.70
2017-12-23T08:56:21.241Z,86.20
2017-12-23T09:01:22.790Z,85.90
2017-12-23T09:06:24.356Z,85.60
2017-12-23T09:11:25.877Z,85.20
2017-12-23T09:16:34.385Z,85.60
2017-12-23T09:21:35.895Z,85.40
2017-12-23T09:26:37.499Z,84.90
2017-12-23T09:31:39.041Z,85.00
2017-12-23T09:36:41.554Z,83.80
2017-12-23T09:41:43.136Z,83.70
2017-12-23T09:46:44.668Z,84.10
2017-12-23T09:51:46.890Z,83.60
2017-12-23T09:56:48.401Z,83.50
2017-12-23T10:01:49.886Z,83.60
2017-12-23T10:06:52.194Z,83.90
2017-12-23T10:11:53.757Z,83.70
2017-12-23T10:16:55.235Z,82.60
2017-12-23T10:21:56.740Z,82.40
2017-12-23T10:26:58.255Z,82.70
2017-12-23T10:31:59.820Z,82.40
2017-12-23T10:37:02.102Z,81.60
2017-12-23T10:42:04.381Z,81.40
2017-12-23T10:47:06.651Z,80.90
2017-12-23T10:52:08.176Z,80.90
2017-12-23T10:57:09.652Z,80.90
2017-12-23T11:02:11.232Z,81.20
2017-12-23T11:07:12.754Z,81.10
2017-12-23T11:12:14.284Z,81.00
2017-12-23T11:17:15.841Z,80.80
2017-12-23T11:22:17.320Z,80.70
2017-12-23T11:27:18.910Z,80.50
2017-12-23T11:32:21.207Z,78.90
2017-12-23T11:37:22.716Z,78.80
2017-12-23T11:42:24.290Z,79.20
2017-12-23T11:47:25.784Z,78.70
2017-12-23T11:52:28.143Z,78.40
2017-12-23T11:57:29.889Z,77.80
2017-12-23T12:02:31.406Z,78.20
2017-12-23T12:07:32.989Z,78.20
2017-12-23T12:12:35.238Z,77.60
2017-12-23T12:17:36.813Z,77.60
2017-12-23T12:22:38.404Z,77.30
2017-12-23T12:27:40.693Z,76.60
2017-12-23T12:32:42.965Z,76.30
2017-12-23T12:37:44.406Z,76.30
2017-12-23T12:42:45.937Z,76.70
2017-12-23T12:47:47.489Z,76.80
2017-12-23T12:52:49.078Z,76.40
2017-12-23T12:57:50.658Z,76.70
2017-12-23T13:02:52.157Z,76.10
2017-12-23T13:07:53.691Z,76.30
2017-12-23T13:12:55.240Z,76.10
2017-12-23T13:17:56.793Z,76.10
2017-12-23T13:22:59.012Z,75.90
2017-12-23T13:28:00.625Z,75.90
2017-12-23T13:33:02.872Z,76.30
2017-12-23T13:38:04.435Z,76.30
2017-12-23T13:43:06.030Z,76.00
2017-12-23T13:48:07.526Z,76.20
2017-12-23T13:53:09.756Z,75.70
2017-12-23T13:58:11.285Z,75.70
2017-12-23T14:03:12.849Z,75.90
2017-12-23T14:08:14.361Z,75.90
2017-12-23T14:13:15.956Z,75.70
2017-12-23T14:18:17.507Z,76.20
2017-12-23T14:23:19.006Z,76.10
2017-12-23T14:28:21.363Z,76.10
2017-12-23T14:33:22.891Z,76.10
2017-12-23T14:38:24.450Z,75.90
2017-12-23T14:43:25.988Z,76.20
2017-12-23T14:48:27.532Z,76.50
2017-12-23T14:53:29.164Z,76.40
2017-12-23T14:58:30.671Z,76.40
2017-12-23T15:03:32.240Z,76.60
2017-12-23T15:08:33.797Z,76.80
2017-12-23T15:13:35.356Z,77.10
2017-12-23T15:18:36.855Z,77.20
2017-12-23T15:23:38.372Z,77.20
2017-12-23T15:28:39.849Z,77.40
2017-12-23T15:33:41.400Z,77.20
2017-12-23T15:38:42.969Z,77.30
2017-12-23T15:43:44.500Z,77.30
2017-12-23T15:48:46.964Z,77.50
2017-12-23T15:53:48.522Z,77.60
2017-12-23T15:58:50.175Z,77.50
2017-12-23T16:03:51.868Z,77.60
2017-12-23T16:08:53.402Z,77.60
2017-12-23T16:13:54.939Z,77.60
2017-12-23T16:18:57.272Z,77.60
2017-12-23T16:23:58.789Z,77.60
2017-12-23T16:29:01.158Z,77.50
2017-12-23T16:34:02.705Z,77.40
2017-12-23T16:39:04.275Z,78.10
2017-12-23T16:44:05.826Z,78.20
2017-12-23T16:49:07.282Z,78.30
2017-12-23T16:54:08.883Z,78.30
2017-12-23T16:59:10.412Z,78.50
2017-12-23T17:04:11.985Z,78.70
2017-12-23T17:09:13.613Z,78.40
2017-12-23T17:14:15.424Z,78.20
2017-12-23T17:19:16.851Z,78.60
2017-12-23T17:24:18.368Z,78.30
2017-12-23T17:29:38.308Z,78.50
2017-12-23T17:34:39.938Z,78.70
2017-12-23T17:39:42.206Z,78.80
2017-12-23T17:44:43.803Z,78.70
2017-12-23T17:49:45.316Z,78.70
2017-12-23T17:54:46.984Z,78.60
2017-12-23T17:59:49.205Z,78.40
2017-12-23T18:04:50.781Z,78.30
2017-12-23T18:09:52.278Z,77.90
2017-12-23T18:14:53.839Z,77.70
2017-12-23T18:19:55.402Z,77.50
2017-12-23T18:24:57.098Z,77.30
2017-12-23T18:29:58.889Z,77.20
2017-12-23T18:35:01.221Z,77.30
2017-12-23T18:40:02.814Z,77.30
2017-12-23T18:45:04.381Z,77.20
2017-12-23T18:50:05.896Z,77.10
2017-12-23T18:55:07.520Z,77.40
2017-12-23T19:00:09.060Z,77.30
2017-12-23T19:05:17.534Z,77.40
2017-12-23T19:10:19.842Z,77.60
2017-12-23T19:15:21.413Z,77.50
2017-12-23T19:20:23.016Z,78.00
2017-12-23T19:25:24.578Z,78.30
2017-12-23T19:30:26.094Z,78.40
2017-12-23T19:35:28.479Z,78.40
2017-12-23T19:40:30.822Z,78.20
2017-12-23T19:45:32.404Z,78.10
2017-12-23T19:50:33.933Z,78.00
2017-12-23T19:55:35.435Z,77.70
2017-12-23T20:00:36.969Z,78.00
2017-12-23T20:05:38.411Z,77.90
2017-12-23T20:10:40.673Z,77.90
2017-12-23T20:15:42.181Z,77.70
2017-12-23T20:20:43.700Z,78.00
2017-12-23T20:25:45.220Z,78.00
2017-12-23T20:30:46.768Z,78.00
2017-12-23T20:35:49.159Z,78.20
2017-12-23T20:40:50.711Z,78.20
2017-12-23T20:45:52.958Z,78.40
2017-12-23T20:50:54.482Z,78.40
2017-12-23T20:55:56.042Z,77.90
2017-12-23T21:00:58.256Z,77.80
2017-12-23T21:05:59.822Z,77.80
2017-12-23T21:11:01.378Z,77.60
2017-12-23T21:16:02.944Z,77.50
2017-12-23T21:21:04.389Z,77.20
2017-12-23T21:26:06.645Z,77.20
2017-12-23T21:31:08.217Z,77.00
2017-12-23T21:36:09.755Z,77.20
2017-12-23T21:41:11.226Z,77.00
2017-12-23T21:46:12.694Z,76.90
2017-12-23T21:51:14.223Z,77.00
2017-12-23T21:56:15.856Z,76.80
2017-12-23T22:01:17.357Z,76.80
2017-12-23T22:06:18.908Z,76.80
2017-12-23T22:11:21.198Z,76.90
2017-12-23T22:16:23.478Z,77.00
2017-12-23T22:21:25.788Z,76.80
2017-12-23T22:26:27.357Z,76.80
2017-12-23T22:31:28.927Z,77.40
2017-12-23T22:36:30.505Z,76.90
2017-12-23T22:41:32.054Z,76.80
2017-12-23T22:46:33.594Z,77.50
2017-12-23T22:51:35.884Z,77.00
2017-12-23T22:56:38.186Z,76.30
2017-12-23T23:01:40.461Z,75.90
2017-12-23T23:06:42.799Z,75.90
2017-12-23T23:11:44.352Z,75.90
2017-12-23T23:16:45.909Z,76.20
2017-12-23T23:21:47.541Z,76.00
2017-12-23T23:26:49.795Z,75.80
2017-12-23T23:31:51.297Z,75.70
2017-12-23T23:36:53.559Z,75.40
2017-12-23T23:41:55.100Z,75.40
2017-12-23T23:46:56.731Z,75.30
2017-12-23T23:51:58.973Z,75.30
2017-12-23T23:57:00.457Z,75.30
